Time;durP1;ratioP1;P1;durP2;ratioP2;P2;SDS_P1;SDS_P2;PMS_P1;PMS_P2;Temp;Humidity;BMP_temperature;BMP_pressure;BME280_temperature;BME280_humidity;BME280_pressure;Samples;Min_cycle;Max_cycle;Signal;HPM_P1;HPM_P2
2024/01/20 00:03:32;;;;;;;13.60;10.23;;;1.10;37.50;;;;;;10355886;28;20312;-74
2024/01/20 00:08:36;;;;;;;13.33;11.37;;;1.00;37.70;;;;;;10353415;28;20589;-74
2024/01/20 00:13:39;;;;;;;13.50;11.07;;;1.00;37.50;;;;;;10352985;28;20250;-74
2024/01/20 00:18:45;;;;;;;14.13;11.00;;;1.00;37.50;;;;;;10359926;28;20230;-74
2024/01/20 00:23:48;;;;;;;13.40;10.80;;;0.70;37.40;;;;;;10349953;28;20234;-75
2024/01/20 00:28:51;;;;;;;13.83;11.20;;;0.50;37.40;;;;;;10360007;28;20775;-74
2024/01/20 00:33:56;;;;;;;13.20;10.07;;;0.30;37.60;;;;;;10357837;28;20238;-74
2024/01/20 00:38:59;;;;;;;12.33;9.43;;;0.20;37.90;;;;;;10352424;28;20312;-74
2024/01/20 00:44:03;;;;;;;12.73;10.20;;;0.20;37.90;;;;;;10353945;28;20783;-74
2024/01/20 00:49:07;;;;;;;14.27;10.67;;;0.20;37.90;;;;;;10351894;28;20608;-75
2024/01/20 00:54:11;;;;;;;14.40;9.77;;;0.20;37.70;;;;;;10351660;28;20222;-75
2024/01/20 00:59:14;;;;;;;13.10;9.47;;;0.20;37.80;;;;;;10356383;28;20318;-74
2024/01/20 01:04:19;;;;;;;11.53;9.90;;;0.10;37.80;;;;;;10356031;28;20300;-74
2024/01/20 01:09:22;;;;;;;11.90;8.37;;;0.10;38.00;;;;;;10358053;28;20240;-74
2024/01/20 01:14:25;;;;;;;11.47;9.67;;;0.20;38.20;;;;;;10357942;28;20285;-75
2024/01/20 01:19:30;;;;;;;12.00;8.97;;;0.20;38.10;;;;;;10356745;28;20586;-75
2024/01/20 01:24:33;;;;;;;11.60;9.90;;;0.30;38.00;;;;;;10356438;28;20241;-74
2024/01/20 01:29:36;;;;;;;12.00;9.70;;;0.30;37.80;;;;;;10354072;28;20246;-74
2024/01/20 01:34:41;;;;;;;10.30;8.57;;;0.40;37.70;;;;;;10352902;28;20308;-74
2024/01/20 01:39:44;;;;;;;10.77;9.67;;;0.40;37.60;;;;;;10353682;28;20261;-75
2024/01/20 01:44:47;;;;;;;12.17;9.77;;;0.40;37.60;;;;;;10354064;28;20260;-75
2024/01/20 01:49:52;;;;;;;11.47;8.83;;;0.40;37.60;;;;;;10350517;28;20237;-75
2024/01/20 01:54:57;;;;;;;10.80;9.33;;;0.40;37.60;;;;;;10354150;28;20720;-74
2024/01/20 02:00:00;;;;;;;10.97;9.67;;;0.50;37.80;;;;;;10359176;28;20780;-74
2024/01/20 02:05:06;;;;;;;10.07;8.00;;;0.50;37.40;;;;;;10352820;28;20230;-74
2024/01/20 02:10:12;;;;;;;10.50;8.83;;;0.50;37.40;;;;;;10360925;28;20236;-74
2024/01/20 02:15:15;;;;;;;9.97;7.73;;;0.50;37.10;;;;;;10364258;28;20236;-74
2024/01/20 02:20:23;;;;;;;11.30;9.43;;;0.40;37.10;;;;;;10359506;28;21049;-74
2024/01/20 02:25:28;;;;;;;11.73;9.40;;;0.20;36.90;;;;;;10365856;28;21104;-74
2024/01/20 02:30:31;;;;;;;12.23;9.33;;;0.10;36.80;;;;;;10363233;28;20232;-74
2024/01/20 02:35:34;;;;;;;13.83;9.37;;;0.00;36.80;;;;;;10361422;28;20239;-74
2024/01/20 02:40:39;;;;;;;10.87;9.30;;;-0.20;36.90;;;;;;10361185;28;20301;-74
2024/01/20 02:45:43;;;;;;;11.33;9.07;;;-0.30;37.20;;;;;;10364480;28;20234;-74
2024/01/20 02:50:46;;;;;;;11.83;9.70;;;-0.40;37.50;;;;;;10360799;28;20230;-74
2024/01/20 02:55:50;;;;;;;10.87;9.23;;;-0.40;37.60;;;;;;10361061;28;20250;-73
2024/01/20 03:00:54;;;;;;;12.23;9.17;;;-0.40;37.20;;;;;;10363220;28;20236;-74
2024/01/20 03:05:57;;;;;;;10.73;8.57;;;-0.50;37.30;;;;;;10365467;28;20317;-74
2024/01/20 03:11:01;;;;;;;9.93;7.90;;;-0.50;38.20;;;;;;10363870;28;20253;-74
2024/01/20 03:16:05;;;;;;;11.10;8.37;;;-0.60;37.70;;;;;;10360179;28;20313;-74
2024/01/20 03:21:08;;;;;;;10.13;7.70;;;-0.50;37.80;;;;;;10362739;28;20309;-74
2024/01/20 03:26:13;;;;;;;10.63;7.63;;;-0.50;37.80;;;;;;10363433;28;20237;-74
2024/01/20 03:31:16;;;;;;;10.80;8.17;;;-0.30;37.60;;;;;;10358872;28;20636;-74
2024/01/20 03:36:21;;;;;;;9.60;8.23;;;-0.40;37.30;;;;;;10362889;28;20329;-74
2024/01/20 03:41:26;;;;;;;10.33;7.77;;;-0.40;37.30;;;;;;10363358;28;20230;-74
2024/01/20 03:46:29;;;;;;;10.93;9.13;;;-0.40;37.40;;;;;;10360569;28;20236;-74
2024/01/20 03:51:32;;;;;;;11.13;8.70;;;-0.40;37.30;;;;;;10361347;28;20337;-74
2024/01/20 03:56:43;;;;;;;10.67;7.53;;;-0.40;37.20;;;;;;10360706;28;20230;-74
2024/01/20 04:01:47;;;;;;;11.80;8.73;;;-0.40;37.30;;;;;;10360750;28;20235;-74
2024/01/20 04:06:50;;;;;;;12.77;8.83;;;-0.40;37.40;;;;;;10358512;28;20242;-74
2024/01/20 04:11:54;;;;;;;10.50;9.03;;;-0.40;37.00;;;;;;10363582;28;20248;-75
2024/01/20 04:16:58;;;;;;;10.93;9.10;;;-0.50;36.80;;;;;;10352363;28;20226;-75
2024/01/20 04:22:01;;;;;;;10.40;8.60;;;-0.70;36.80;;;;;;10362847;28;20226;-75
2024/01/20 04:27:06;;;;;;;11.07;8.23;;;-0.90;37.00;;;;;;10353540;28;20325;-74
2024/01/20 04:32:09;;;;;;;10.67;8.27;;;-1.00;37.20;;;;;;10359710;28;20597;-74
2024/01/20 04:37:12;;;;;;;10.37;8.47;;;-1.10;37.40;;;;;;10359488;28;20222;-75
2024/01/20 04:42:16;;;;;;;12.00;8.43;;;-1.10;37.70;;;;;;10355378;28;20230;-75
2024/01/20 04:47:20;;;;;;;9.47;7.97;;;-1.10;37.70;;;;;;10360328;28;20783;-73
2024/01/20 04:52:24;;;;;;;12.20;9.10;;;-1.00;37.80;;;;;;10356650;28;20728;-74
2024/01/20 04:57:28;;;;;;;11.10;8.47;;;-1.00;37.60;;;;;;10354937;28;20238;-74
2024/01/20 05:02:32;;;;;;;9.27;8.03;;;-0.90;37.50;;;;;;10355562;28;20241;-74
2024/01/20 05:07:35;;;;;;;10.53;8.57;;;-1.00;37.50;;;;;;10356934;28;20234;-75
2024/01/20 05:12:40;;;;;;;10.63;8.37;;;-1.00;37.70;;;;;;10359304;28;20234;-74
2024/01/20 05:17:44;;;;;;;10.77;8.40;;;-1.00;37.40;;;;;;10357156;28;20239;-74
2024/01/20 05:22:47;;;;;;;10.10;8.00;;;-1.00;37.20;;;;;;10353370;28;20294;-74
2024/01/20 05:27:52;;;;;;;11.03;8.77;;;-1.00;37.30;;;;;;10356290;28;20248;-74
2024/01/20 05:32:55;;;;;;;10.53;8.23;;;-1.00;37.40;;;;;;10352090;28;20229;-75
2024/01/20 05:37:58;;;;;;;10.43;8.43;;;-1.00;37.40;;;;;;10344689;28;20231;-74
2024/01/20 05:43:04;;;;;;;9.50;7.67;;;-1.00;37.40;;;;;;10357380;28;20325;-74
2024/01/20 05:48:07;;;;;;;11.73;8.80;;;-1.00;37.50;;;;;;10364995;28;20253;-74
2024/01/20 05:53:10;;;;;;;11.87;8.30;;;-0.90;37.30;;;;;;10360983;28;20233;-75
2024/01/20 05:58:15;;;;;;;12.30;9.43;;;-0.90;37.00;;;;;;10362439;28;20230;-75
2024/01/20 06:03:18;;;;;;;12.90;9.73;;;-1.00;36.70;;;;;;10365786;28;20821;-74
2024/01/20 06:08:22;;;;;;;9.77;8.20;;;-1.10;36.50;;;;;;10361818;28;20240;-74
2024/01/20 06:13:26;;;;;;;11.30;9.10;;;-1.20;36.60;;;;;;10353505;28;20329;-75
2024/01/20 06:18:30;;;;;;;10.80;8.17;;;-1.30;37.00;;;;;;10362297;28;20885;-75
2024/01/20 06:23:33;;;;;;;11.07;8.17;;;-1.30;37.30;;;;;;10361802;28;20234;-74
2024/01/20 06:28:39;;;;;;;13.67;9.13;;;-1.30;37.60;;;;;;10358462;28;20230;-75
2024/01/20 06:33:42;;;;;;;10.63;7.97;;;-1.30;37.20;;;;;;10358307;28;20321;-75
2024/01/20 06:38:47;;;;;;;11.73;8.57;;;-1.30;37.00;;;;;;10359348;28;20659;-75
2024/01/20 06:43:52;;;;;;;10.53;8.27;;;-1.40;37.00;;;;;;10358428;28;20237;-74
2024/01/20 06:48:55;;;;;;;10.57;8.20;;;-1.40;37.10;;;;;;10365403;28;20321;-75
2024/01/20 06:53:58;;;;;;;10.77;7.70;;;-1.40;37.30;;;;;;10360789;28;20234;-75
2024/01/20 06:59:03;;;;;;;10.17;7.87;;;-1.20;37.50;;;;;;10361906;28;20230;-74
2024/01/20 07:04:07;;;;;;;11.40;8.43;;;-1.30;37.30;;;;;;10357409;28;20230;-74
2024/01/20 07:09:11;;;;;;;11.00;8.83;;;-1.30;37.30;;;;;;10360921;28;20591;-74
2024/01/20 07:14:15;;;;;;;11.57;9.17;;;-1.20;37.20;;;;;;10353952;28;20723;-75
2024/01/20 07:19:18;;;;;;;11.37;9.47;;;-1.30;37.10;;;;;;10351707;28;20484;-75
2024/01/20 07:24:21;;;;;;;10.37;8.70;;;-1.30;37.00;;;;;;10353063;28;21858;-75
2024/01/20 07:29:26;;;;;;;12.20;8.53;;;-1.30;37.00;;;;;;10355035;28;20602;-75
2024/01/20 07:34:29;;;;;;;9.73;7.40;;;-1.30;37.30;;;;;;10353007;28;20234;-75
2024/01/20 07:39:33;;;;;;;12.90;9.40;;;-1.30;37.40;;;;;;10350466;28;20683;-75
2024/01/20 07:44:37;;;;;;;12.40;9.83;;;-1.30;37.50;;;;;;10360859;28;20234;-75
2024/01/20 07:49:40;;;;;;;12.07;9.97;;;-1.30;37.30;;;;;;10357418;28;20580;-74
2024/01/20 07:54:44;;;;;;;12.03;9.27;;;-1.20;37.40;;;;;;10355413;28;20246;-74
2024/01/20 07:59:49;;;;;;;13.43;10.30;;;-1.20;37.50;;;;;;10353107;28;20239;-74
2024/01/20 08:04:52;;;;;;;12.03;9.43;;;-1.20;37.70;;;;;;10354625;28;20234;-75
2024/01/20 08:09:55;;;;;;;14.07;9.57;;;-1.10;37.70;;;;;;10354044;28;20717;-74
2024/01/20 08:14:59;;;;;;;14.77;10.40;;;-1.00;37.80;;;;;;10347753;28;20262;-75
2024/01/20 08:20:03;;;;;;;16.37;11.53;;;-0.80;38.00;;;;;;10353164;28;20753;-75
2024/01/20 08:25:08;;;;;;;22.73;16.03;;;-0.70;38.30;;;;;;10357883;28;20237;-75
2024/01/20 08:30:13;;;;;;;17.53;12.97;;;-0.50;38.20;;;;;;10354031;28;20221;-78
2024/01/20 08:35:17;;;;;;;14.57;11.80;;;-0.60;38.20;;;;;;10353818;28;20234;-78
2024/01/20 08:40:21;;;;;;;14.37;11.93;;;-0.60;38.70;;;;;;10353017;28;20293;-79
2024/01/20 08:45:26;;;;;;;13.33;10.90;;;-0.50;39.00;;;;;;10370789;28;20489;-79
2024/01/20 08:50:29;;;;;;;22.73;16.73;;;-0.30;39.20;;;;;;10360380;28;20309;-79
2024/01/20 08:55:32;;;;;;;17.80;13.47;;;0.00;39.30;;;;;;10351631;28;20230;-78
2024/01/20 09:00:37;;;;;;;15.93;12.30;;;0.20;39.20;;;;;;10346094;28;20697;-77
2024/01/20 09:05:40;;;;;;;12.43;10.43;;;0.40;39.30;;;;;;10353730;28;20286;-77
2024/01/20 09:10:44;;;;;;;14.27;12.60;;;0.60;39.20;;;;;;10352569;28;20226;-80
2024/01/20 09:15:48;;;;;;;13.10;11.23;;;0.80;39.30;;;;;;10349145;28;20231;-80
2024/01/20 09:20:51;;;;;;;13.10;11.53;;;1.00;39.30;;;;;;10357265;28;20365;-80
2024/01/20 09:25:55;;;;;;;12.27;11.00;;;1.20;39.40;;;;;;10359858;28;20807;-81
2024/01/20 09:30:59;;;;;;;13.20;11.33;;;1.30;39.40;;;;;;10357876;28;20242;-81
2024/01/20 09:36:03;;;;;;;13.00;10.27;;;1.50;39.10;;;;;;10356006;28;20245;-80
2024/01/20 09:41:09;;;;;;;10.50;9.40;;;1.60;38.90;;;;;;10349938;28;20254;-79
2024/01/20 09:46:18;;;;;;;11.57;9.60;;;1.70;38.80;;;;;;10355134;28;20276;-77
2024/01/20 09:51:24;;;;;;;10.80;8.73;;;1.80;38.50;;;;;;10358271;28;20237;-78
2024/01/20 09:56:28;;;;;;;11.50;8.57;;;1.80;38.60;;;;;;10359245;28;20234;-76
2024/01/20 10:01:34;;;;;;;10.00;8.37;;;1.90;39.40;;;;;;10369931;28;20238;-76
2024/01/20 10:06:37;;;;;;;10.47;8.70;;;2.10;40.40;;;;;;10363458;28;20230;-77
2024/01/20 10:11:40;;;;;;;12.00;9.63;;;2.40;42.10;;;;;;10363749;28;20257;-76
2024/01/20 10:16:45;;;;;;;11.97;9.93;;;2.80;42.60;;;;;;10355702;28;20262;-77
2024/01/20 10:21:49;;;;;;;10.40;9.37;;;3.30;40.90;;;;;;10355848;28;20238;-76
2024/01/20 10:26:53;;;;;;;10.93;9.83;;;3.60;39.70;;;;;;10360426;28;20226;-77
2024/01/20 10:31:59;;;;;;;10.90;9.77;;;3.80;39.10;;;;;;10360455;28;20256;-77
2024/01/20 10:37:06;;;;;;;12.43;9.40;;;3.90;38.90;;;;;;10355148;28;20248;-77
2024/01/20 10:42:12;;;;;;;9.87;8.87;;;4.00;38.10;;;;;;10357555;28;20230;-77
2024/01/20 10:47:26;;;;;;;9.67;7.83;;;4.00;38.00;;;;;;10360162;28;20246;-76
2024/01/20 10:52:31;;;;;;;9.70;8.60;;;4.10;37.50;;;;;;10361685;28;20249;-77
2024/01/20 10:57:35;;;;;;;8.87;7.47;;;4.20;38.00;;;;;;10354957;28;20222;-77
2024/01/20 11:02:40;;;;;;;7.77;6.67;;;4.30;37.00;;;;;;10361559;28;20662;-77
2024/01/20 11:07:43;;;;;;;7.10;6.40;;;4.40;36.80;;;;;;10365801;28;20230;-77
2024/01/20 11:12:59;;;;;;;7.43;6.47;;;4.40;37.10;;;;;;10357780;28;20238;-77
2024/01/20 11:18:15;;;;;;;9.20;6.57;;;4.40;36.30;;;;;;10363372;28;20226;-77
2024/01/20 11:23:21;;;;;;;7.87;6.63;;;4.60;37.00;;;;;;10361522;28;20242;-77
2024/01/20 11:28:26;;;;;;;9.20;6.60;;;4.70;36.90;;;;;;10362585;28;20245;-77
2024/01/20 11:33:31;;;;;;;7.83;7.03;;;4.80;36.60;;;;;;10370201;28;20252;-78
2024/01/20 11:38:37;;;;;;;6.67;6.07;;;4.90;36.70;;;;;;10352191;28;20249;-77
2024/01/20 11:43:45;;;;;;;8.63;6.20;;;5.00;36.80;;;;;;10361351;28;20222;-77
2024/01/20 11:48:51;;;;;;;6.20;5.60;;;5.10;36.10;;;;;;10361169;28;20249;-77
2024/01/20 11:53:55;;;;;;;7.53;6.67;;;5.20;36.00;;;;;;10352309;28;20234;-78
2024/01/20 11:58:58;;;;;;;6.70;6.10;;;5.30;36.10;;;;;;10363611;28;20230;-77
2024/01/20 12:04:02;;;;;;;6.70;6.10;;;5.30;36.00;;;;;;10362537;28;20274;-77
2024/01/20 12:09:06;;;;;;;7.37;6.67;;;5.20;36.00;;;;;;10364008;28;20618;-78
2024/01/20 12:14:10;;;;;;;6.87;6.17;;;5.20;36.80;;;;;;10361102;28;20234;-78
2024/01/20 12:19:16;;;;;;;6.47;5.80;;;5.20;36.90;;;;;;10358687;28;20255;-77
2024/01/20 12:24:20;;;;;;;7.17;6.47;;;5.30;35.50;;;;;;10361364;28;20226;-77
2024/01/20 12:29:23;;;;;;;6.87;6.17;;;5.30;36.10;;;;;;10358936;28;20653;-77
2024/01/20 12:34:27;;;;;;;6.97;6.37;;;5.30;36.20;;;;;;10351460;28;20241;-77
2024/01/20 12:39:31;;;;;;;7.17;6.53;;;5.40;36.30;;;;;;10362373;28;20230;-77
2024/01/20 12:44:34;;;;;;;6.57;5.97;;;5.40;36.50;;;;;;10355109;28;20226;-77
2024/01/20 12:49:38;;;;;;;7.47;5.57;;;5.50;36.30;;;;;;10353677;28;20228;-77
2024/01/20 12:54:42;;;;;;;6.13;5.47;;;5.60;35.50;;;;;;10358680;28;20594;-77
2024/01/20 12:59:48;;;;;;;8.90;5.57;;;5.70;35.90;;;;;;10360845;28;20237;-77
2024/01/20 13:04:53;;;;;;;6.13;5.53;;;5.80;38.30;;;;;;10359987;28;20230;-79
2024/01/20 13:09:56;;;;;;;5.70;4.87;;;6.00;37.60;;;;;;10356020;28;20226;-77
2024/01/20 13:14:59;;;;;;;7.30;5.90;;;6.10;37.60;;;;;;10359201;28;20226;-77
2024/01/20 13:20:06;;;;;;;5.07;4.67;;;6.20;36.90;;;;;;10359339;28;20226;-77
2024/01/20 13:25:10;;;;;;;5.60;5.00;;;6.30;35.30;;;;;;10357324;28;20230;-77
2024/01/20 13:30:14;;;;;;;5.93;5.37;;;6.30;35.90;;;;;;10355396;28;20708;-76
2024/01/20 13:35:19;;;;;;;5.40;4.90;;;6.30;35.50;;;;;;10358225;28;20317;-77
2024/01/20 13:40:22;;;;;;;4.47;4.13;;;6.30;34.70;;;;;;10352617;28;20244;-77
2024/01/20 13:45:25;;;;;;;7.43;5.73;;;6.20;34.80;;;;;;10357595;28;20226;-76
2024/01/20 13:50:30;;;;;;;4.57;4.17;;;6.10;35.00;;;;;;10363635;28;20222;-76
2024/01/20 13:55:33;;;;;;;5.03;4.53;;;6.00;33.80;;;;;;10356403;28;20313;-77
2024/01/20 14:00:36;;;;;;;4.40;4.03;;;5.90;34.50;;;;;;10361468;28;20234;-76
2024/01/20 14:05:43;;;;;;;3.97;3.27;;;5.80;34.20;;;;;;10365099;28;20230;-76
2024/01/20 14:10:46;;;;;;;4.00;3.60;;;5.60;34.10;;;;;;10372917;28;20252;-76
2024/01/20 14:15:49;;;;;;;4.57;4.17;;;5.60;34.60;;;;;;10372433;28;20232;-76
2024/01/20 14:20:54;;;;;;;4.93;3.90;;;5.60;34.40;;;;;;10372211;28;20223;-76
2024/01/20 14:25:57;;;;;;;5.53;3.67;;;5.50;33.80;;;;;;10388517;28;20233;-76
2024/01/20 14:31:03;;;;;;;4.90;3.60;;;5.40;34.30;;;;;;10372518;28;20223;-76
2024/01/20 14:36:08;;;;;;;3.23;3.03;;;5.40;34.00;;;;;;10371686;28;20254;-76
2024/01/20 14:41:12;;;;;;;3.33;3.13;;;5.30;33.60;;;;;;10371319;28;20234;-76
2024/01/20 14:46:16;;;;;;;3.03;2.80;;;5.30;34.10;;;;;;10371352;28;20313;-76
2024/01/20 14:51:21;;;;;;;3.57;2.80;;;5.20;33.90;;;;;;10370973;28;20228;-76
2024/01/20 14:56:28;;;;;;;3.20;2.90;;;5.20;33.60;;;;;;10371247;28;20218;-77
2024/01/20 15:01:32;;;;;;;3.50;3.20;;;5.20;33.70;;;;;;10362926;28;20748;-77
2024/01/20 15:06:37;;;;;;;3.40;3.10;;;5.10;33.60;;;;;;10371057;28;20218;-77
2024/01/20 15:11:40;;;;;;;5.63;3.77;;;5.10;33.60;;;;;;10370191;28;20226;-77
2024/01/20 15:16:43;;;;;;;3.93;3.43;;;5.10;33.80;;;;;;10369848;28;20341;-77
2024/01/20 15:21:48;;;;;;;6.57;5.87;;;5.10;34.10;;;;;;10370886;28;20321;-77
2024/01/20 15:26:51;;;;;;;9.57;6.00;;;5.10;33.60;;;;;;10363117;28;20799;-78
2024/01/20 15:31:55;;;;;;;4.63;3.73;;;5.20;33.80;;;;;;10358839;28;20226;-78
2024/01/20 15:37:02;;;;;;;6.27;4.07;;;5.10;33.60;;;;;;10358761;28;20238;-78
2024/01/20 15:42:05;;;;;;;6.33;5.73;;;5.10;33.40;;;;;;10365079;28;20245;-78
2024/01/20 15:47:09;;;;;;;6.37;5.27;;;5.10;33.90;;;;;;10354748;28;20226;-78
2024/01/20 15:52:13;;;;;;;6.80;5.73;;;5.20;34.00;;;;;;10361065;28;20652;-79
2024/01/20 15:57:16;;;;;;;8.27;7.47;;;5.20;34.00;;;;;;10361710;28;20236;-77
2024/01/20 16:02:20;;;;;;;8.50;7.37;;;5.20;34.00;;;;;;10352709;28;20231;-78
2024/01/20 16:07:25;;;;;;;7.53;6.73;;;5.20;34.00;;;;;;10361330;28;20329;-78
2024/01/20 16:12:28;;;;;;;8.97;7.80;;;5.10;33.80;;;;;;10360375;28;20237;-77
2024/01/20 16:17:31;;;;;;;8.10;6.67;;;5.10;33.90;;;;;;10360886;28;20323;-78
2024/01/20 16:22:38;;;;;;;10.23;7.90;;;5.10;33.90;;;;;;10357713;28;20227;-78
2024/01/20 16:27:41;;;;;;;8.50;6.70;;;5.00;33.60;;;;;;10356593;28;20322;-77
2024/01/20 16:32:45;;;;;;;9.20;7.77;;;5.00;34.20;;;;;;10356120;28;20682;-77
2024/01/20 16:37:49;;;;;;;8.60;7.73;;;4.90;34.30;;;;;;10358018;28;20226;-77
2024/01/20 16:42:55;;;;;;;9.63;8.63;;;4.80;34.10;;;;;;10355297;28;20736;-77
2024/01/20 16:47:58;;;;;;;13.73;9.87;;;4.80;34.10;;;;;;10357103;28;20234;-77
2024/01/20 16:53:03;;;;;;;12.50;9.57;;;4.70;34.00;;;;;;10347213;28;20731;-76
2024/01/20 16:58:07;;;;;;;9.60;7.53;;;4.60;34.50;;;;;;10345084;28;20313;-76
2024/01/20 17:03:10;;;;;;;13.80;10.10;;;4.60;34.00;;;;;;10355669;28;20328;-76
2024/01/20 17:08:15;;;;;;;12.13;10.10;;;4.50;34.00;;;;;;10354936;28;20246;-76
2024/01/20 17:13:18;;;;;;;9.87;8.83;;;4.40;33.80;;;;;;10347650;28;20230;-76
2024/01/20 17:18:21;;;;;;;12.60;9.77;;;4.40;34.00;;;;;;10353607;28;20276;-76
2024/01/20 17:23:27;;;;;;;13.70;10.73;;;4.30;34.00;;;;;;10358656;28;20307;-76
2024/01/20 17:28:32;;;;;;;14.47;11.40;;;4.20;33.80;;;;;;10355509;28;20673;-77
2024/01/20 17:33:35;;;;;;;12.77;10.33;;;4.20;34.10;;;;;;10354820;28;20300;-76
2024/01/20 17:38:40;;;;;;;13.57;10.33;;;4.10;34.10;;;;;;10354372;28;21168;-76
2024/01/20 17:43:43;;;;;;;13.90;11.50;;;4.10;34.00;;;;;;10354734;28;20741;-76
2024/01/20 17:48:48;;;;;;;14.27;12.03;;;4.00;34.10;;;;;;10356293;28;20696;-76
2024/01/20 17:53:54;;;;;;;12.43;10.00;;;4.00;34.10;;;;;;10358106;28;20324;-76
2024/01/20 17:58:57;;;;;;;14.53;11.87;;;3.90;33.90;;;;;;10355230;28;20314;-76
2024/01/20 18:04:00;;;;;;;14.63;11.53;;;3.80;33.80;;;;;;10360489;28;20237;-75
2024/01/20 18:09:05;;;;;;;11.20;9.03;;;3.70;33.90;;;;;;10357207;28;20222;-76
2024/01/20 18:14:08;;;;;;;12.40;10.17;;;3.60;33.80;;;;;;10359614;28;20238;-76
2024/01/20 18:19:11;;;;;;;16.87;11.90;;;3.50;34.00;;;;;;10357153;28;20253;-76
2024/01/20 18:24:16;;;;;;;13.10;11.13;;;3.50;34.00;;;;;;10362682;28;20234;-76
2024/01/20 18:29:20;;;;;;;12.90;11.10;;;3.40;34.70;;;;;;10363708;28;20219;-76
2024/01/20 18:34:23;;;;;;;12.33;10.93;;;3.30;34.00;;;;;;10363799;28;20249;-76
2024/01/20 18:39:28;;;;;;;12.80;11.50;;;3.50;34.30;;;;;;10364033;28;20234;-76
2024/01/20 18:44:32;;;;;;;12.30;9.47;;;3.40;34.00;;;;;;10357447;28;20230;-73
2024/01/20 18:49:36;;;;;;;12.27;10.30;;;3.20;34.00;;;;;;10346406;28;20692;-77
2024/01/20 18:54:41;;;;;;;12.00;9.77;;;3.10;34.00;;;;;;10350811;28;20830;-77
2024/01/20 18:59:46;;;;;;;11.73;9.73;;;3.00;33.90;;;;;;10352330;28;20233;-77
2024/01/20 19:04:49;;;;;;;9.17;8.00;;;3.00;34.00;;;;;;10359852;28;20231;-78
2024/01/20 19:09:53;;;;;;;13.77;10.33;;;2.90;34.20;;;;;;10353140;28;20219;-78
2024/01/20 19:14:57;;;;;;;9.70;8.70;;;2.80;34.00;;;;;;10331828;28;20258;-78
2024/01/20 19:20:04;;;;;;;10.33;8.00;;;2.90;34.20;;;;;;10352440;28;20301;-78
2024/01/20 19:25:10;;;;;;;11.90;8.50;;;2.60;34.10;;;;;;10333412;28;20239;-77
2024/01/20 19:30:13;;;;;;;10.97;9.20;;;2.60;34.10;;;;;;10362448;28;20313;-75
2024/01/20 19:35:16;;;;;;;14.90;12.03;;;2.50;34.20;;;;;;10352525;28;20242;-75
2024/01/20 19:40:21;;;;;;;13.90;11.07;;;2.40;34.30;;;;;;10358867;28;20234;-78
2024/01/20 19:45:24;;;;;;;16.53;13.03;;;2.30;34.50;;;;;;10362921;28;20310;-78
2024/01/20 19:50:27;;;;;;;15.00;12.47;;;2.30;34.60;;;;;;10355593;28;20218;-78
2024/01/20 19:55:32;;;;;;;16.27;13.33;;;2.30;34.60;;;;;;10362023;28;20269;-78
2024/01/20 20:00:35;;;;;;;14.63;13.07;;;2.20;34.50;;;;;;10368782;28;20229;-78
2024/01/20 20:05:39;;;;;;;15.43;13.33;;;2.10;34.40;;;;;;10362265;28;20325;-77
2024/01/20 20:10:47;;;;;;;16.57;13.30;;;2.10;34.40;;;;;;10360685;28;20732;-78
2024/01/20 20:15:50;;;;;;;12.53;11.00;;;2.10;34.40;;;;;;10353051;28;20239;-77
2024/01/20 20:20:53;;;;;;;18.80;13.17;;;2.10;34.40;;;;;;10354047;28;20230;-78
2024/01/20 20:25:58;;;;;;;14.33;12.77;;;2.00;34.30;;;;;;10358484;28;20218;-78
2024/01/20 20:31:01;;;;;;;13.50;10.93;;;1.90;34.20;;;;;;10359792;28;20226;-78
2024/01/20 20:36:12;;;;;;;15.43;12.60;;;1.80;34.20;;;;;;10354523;28;20716;-78
2024/01/20 20:41:17;;;;;;;17.10;12.17;;;1.70;34.10;;;;;;10360535;28;20313;-78
2024/01/20 20:46:20;;;;;;;18.73;14.03;;;1.70;34.10;;;;;;10357110;28;20222;-76
2024/01/20 20:51:24;;;;;;;26.53;18.87;;;1.60;34.00;;;;;;10356920;28;20242;-77
2024/01/20 20:56:29;;;;;;;21.00;16.20;;;1.60;34.00;;;;;;10359208;28;20276;-77
2024/01/20 21:01:32;;;;;;;20.23;14.53;;;1.60;34.00;;;;;;10356393;28;20226;-77
2024/01/20 21:06:35;;;;;;;17.57;13.17;;;1.50;33.90;;;;;;10357976;28;20222;-77
2024/01/20 21:11:40;;;;;;;16.60;11.87;;;1.40;33.80;;;;;;10355967;28;20222;-77
2024/01/20 21:16:43;;;;;;;13.63;10.93;;;1.40;33.90;;;;;;10351511;28;20230;-77
2024/01/20 21:21:47;;;;;;;12.00;9.57;;;1.40;33.90;;;;;;10346581;28;20789;-78
2024/01/20 21:26:52;;;;;;;13.90;10.27;;;1.30;33.80;;;;;;10351270;28;20222;-77
2024/01/20 21:31:55;;;;;;;12.60;9.70;;;1.30;33.80;;;;;;10354641;28;20230;-77
2024/01/20 21:36:58;;;;;;;11.27;9.63;;;1.30;33.80;;;;;;10347338;28;20226;-77
2024/01/20 21:42:03;;;;;;;12.83;9.97;;;1.30;33.80;;;;;;10350978;28;20782;-77
2024/01/20 21:47:07;;;;;;;10.40;8.87;;;1.20;33.70;;;;;;10355567;28;20222;-77
2024/01/20 21:52:10;;;;;;;10.70;8.77;;;1.20;33.70;;;;;;10350962;28;20226;-78
2024/01/20 21:57:15;;;;;;;14.60;10.70;;;1.10;33.60;;;;;;10351611;28;20223;-77
2024/01/20 22:02:18;;;;;;;15.07;10.47;;;1.00;33.60;;;;;;10349242;28;20728;-77
2024/01/20 22:07:22;;;;;;;12.57;9.47;;;1.00;33.90;;;;;;10354415;28;20242;-77
2024/01/20 22:12:27;;;;;;;9.27;7.97;;;0.90;33.80;;;;;;10352106;28;20230;-77
2024/01/20 22:17:30;;;;;;;13.67;9.30;;;0.90;33.90;;;;;;10350541;28;20301;-77
2024/01/20 22:22:34;;;;;;;10.53;8.70;;;0.80;34.00;;;;;;10351528;28;20366;-77
2024/01/20 22:27:38;;;;;;;10.53;8.27;;;0.80;33.90;;;;;;10354411;28;20232;-77
2024/01/20 22:32:42;;;;;;;9.83;8.40;;;0.70;33.90;;;;;;10358581;28;20231;-77
2024/01/20 22:37:45;;;;;;;11.13;8.47;;;0.70;34.00;;;;;;10357637;28;20963;-77
2024/01/20 22:42:50;;;;;;;8.47;7.63;;;0.50;34.00;;;;;;10362649;28;20779;-77
2024/01/20 22:47:53;;;;;;;8.93;8.00;;;0.50;34.20;;;;;;10357431;28;20222;-77
2024/01/20 22:52:57;;;;;;;8.43;7.07;;;0.40;34.20;;;;;;10358578;28;20246;-77
2024/01/20 22:58:02;;;;;;;9.50;7.53;;;0.40;34.20;;;;;;10366282;28;20221;-77
2024/01/20 23:03:05;;;;;;;8.10;6.23;;;0.40;34.30;;;;;;10361669;28;20276;-77
2024/01/20 23:08:11;;;;;;;7.03;6.33;;;0.40;34.40;;;;;;10361478;28;20223;-77
2024/01/20 23:13:16;;;;;;;6.97;6.27;;;0.40;34.60;;;;;;10359183;28;20226;-77
2024/01/20 23:18:19;;;;;;;8.67;6.20;;;0.30;34.40;;;;;;10362397;28;20933;-77
2024/01/20 23:23:23;;;;;;;8.40;6.67;;;0.20;34.40;;;;;;10363350;28;20720;-77
2024/01/20 23:28:27;;;;;;;7.37;6.10;;;0.20;34.40;;;;;;10364561;28;20277;-77
2024/01/20 23:33:31;;;;;;;7.40;5.43;;;0.20;34.60;;;;;;10360624;28;20322;-77
2024/01/20 23:38:34;;;;;;;7.90;6.00;;;0.10;34.40;;;;;;10351506;28;20989;-77
2024/01/20 23:43:39;;;;;;;7.40;5.60;;;0.10;34.40;;;;;;10361684;28;20236;-77
2024/01/20 23:48:42;;;;;;;5.83;5.03;;;0.10;34.50;;;;;;10356458;28;20231;-77
2024/01/20 23:53:45;;;;;;;6.43;4.70;;;0.00;34.60;;;;;;10360506;28;20234;-77
2024/01/20 23:58:50;;;;;;;6.27;5.20;;;0.00;34.60;;;;;;10361126;28;20313;-77
